createdAt,value
2023-03-28T00:01:03.141Z,2.60
2023-03-28T00:03:35.780Z,2.60
2023-03-28T00:06:09.930Z,2.60
2023-03-28T00:08:40.647Z,2.60
2023-03-28T00:11:11.999Z,2.60
2023-03-28T00:13:41.585Z,2.50
2023-03-28T00:16:12.913Z,2.50
2023-03-28T00:18:42.982Z,2.40
2023-03-28T00:21:24.023Z,2.40
2023-03-28T00:23:53.578Z,2.50
2023-03-28T00:26:25.056Z,2.50
2023-03-28T00:28:55.002Z,2.50
2023-03-28T00:31:24.006Z,2.50
2023-03-28T00:33:52.345Z,2.40
2023-03-28T00:36:22.975Z,2.40
2023-03-28T00:38:52.596Z,2.40
2023-03-28T00:41:22.046Z,2.30
2023-03-28T00:43:52.357Z,2.40
2023-03-28T00:46:27.419Z,2.30
2023-03-28T00:49:00.800Z,2.30
2023-03-28T00:51:34.089Z,2.30
2023-03-28T00:54:04.606Z,2.30
2023-03-28T00:56:37.042Z,2.30
2023-03-28T00:59:09.100Z,2.20
2023-03-28T01:01:38.638Z,2.20
2023-03-28T01:04:10.344Z,2.30
2023-03-28T01:06:41.718Z,2.30
2023-03-28T01:09:10.650Z,2.30
2023-03-28T01:11:41.758Z,2.30
2023-03-28T01:14:13.241Z,2.30
2023-03-28T01:16:43.252Z,2.20
2023-03-28T01:19:22.110Z,2.20
2023-03-28T01:22:14.161Z,2.20
2023-03-28T01:25:15.730Z,2.20
2023-03-28T01:27:52.224Z,2.10
2023-03-28T01:30:48.514Z,2.10
2023-03-28T01:33:47.209Z,2.10
2023-03-28T01:37:00.096Z,2.10
2023-03-28T01:39:40.708Z,2.10
2023-03-28T01:42:16.217Z,2.10
2023-03-28T01:44:51.782Z,2.00
2023-03-28T01:47:26.844Z,2.10
2023-03-28T01:50:03.311Z,2.10
2023-03-28T01:52:40.471Z,2.10
2023-03-28T01:55:17.371Z,2.00
2023-03-28T01:57:52.605Z,2.00
2023-03-28T02:00:26.958Z,2.10
2023-03-28T02:03:01.292Z,2.10
2023-03-28T02:05:33.243Z,2.10
2023-03-28T02:08:03.658Z,2.20
2023-03-28T02:10:34.449Z,2.10
2023-03-28T02:13:08.128Z,2.20
2023-03-28T02:15:36.592Z,2.30
2023-03-28T02:18:09.588Z,2.30
2023-03-28T02:20:39.031Z,2.30
2023-03-28T02:23:12.487Z,2.20
2023-03-28T02:25:42.895Z,2.20
2023-03-28T02:28:13.752Z,2.30
2023-03-28T02:30:42.182Z,2.30
2023-03-28T02:33:33.434Z,2.30
2023-03-28T02:36:14.110Z,2.30
2023-03-28T02:38:49.422Z,2.30
2023-03-28T02:41:30.585Z,2.30
2023-03-28T02:44:20.782Z,2.40
2023-03-28T02:46:56.735Z,2.30
2023-03-28T02:49:56.872Z,2.30
2023-03-28T02:52:36.985Z,2.30
2023-03-28T02:55:17.614Z,2.30
2023-03-28T02:57:52.812Z,2.40
2023-03-28T03:00:21.817Z,2.40
2023-03-28T03:02:51.887Z,2.40
2023-03-28T03:05:21.491Z,2.40
2023-03-28T03:07:50.332Z,2.40
2023-03-28T03:10:19.785Z,2.40
2023-03-28T03:12:49.770Z,2.40
2023-03-28T03:15:18.026Z,2.40
2023-03-28T03:17:47.353Z,2.30
2023-03-28T03:20:15.495Z,2.30
2023-03-28T03:22:43.869Z,2.30
2023-03-28T03:25:14.623Z,2.30
2023-03-28T03:27:43.172Z,2.30
2023-03-28T03:30:13.965Z,2.20
2023-03-28T03:32:44.373Z,2.20
2023-03-28T03:35:12.873Z,2.20
2023-03-28T03:37:41.734Z,2.30
2023-03-28T03:40:10.962Z,2.20
2023-03-28T03:42:39.365Z,2.10
2023-03-28T03:45:09.701Z,2.10
2023-03-28T03:47:39.552Z,2.10
2023-03-28T03:50:09.425Z,2.10
2023-03-28T03:52:38.324Z,2.20
2023-03-28T03:55:07.650Z,2.20
2023-03-28T03:57:35.909Z,2.20
2023-03-28T04:00:12.151Z,2.10
2023-03-28T04:02:41.823Z,2.10
2023-03-28T04:05:10.558Z,2.00
2023-03-28T04:07:38.993Z,2.00
2023-03-28T04:10:08.344Z,2.10
2023-03-28T04:12:36.714Z,2.00
2023-03-28T04:15:05.440Z,2.00
2023-03-28T04:17:34.804Z,1.90
2023-03-28T04:20:11.500Z,1.80
2023-03-28T04:22:45.276Z,1.90
2023-03-28T04:25:14.866Z,1.90
2023-03-28T04:27:47.381Z,1.80
2023-03-28T04:30:17.741Z,1.80
2023-03-28T04:32:49.879Z,1.80
2023-03-28T04:35:19.796Z,1.80
2023-03-28T04:37:49.656Z,1.90
2023-03-28T04:40:17.991Z,1.80
2023-03-28T04:42:47.192Z,1.80
2023-03-28T04:45:17.687Z,1.80
2023-03-28T04:47:46.323Z,1.80
2023-03-28T04:50:14.565Z,1.80
2023-03-28T04:52:44.061Z,1.80
2023-03-28T04:55:12.516Z,1.70
2023-03-28T04:57:40.707Z,1.80
2023-03-28T05:00:10.720Z,1.70
2023-03-28T05:02:39.238Z,1.70
2023-03-28T05:05:08.059Z,1.70
2023-03-28T05:07:37.082Z,1.70
2023-03-28T05:10:07.594Z,1.70
2023-03-28T05:12:36.277Z,1.70
2023-03-28T05:15:04.636Z,1.80
2023-03-28T05:17:33.073Z,1.80
2023-03-28T05:20:01.223Z,2.00
2023-03-28T05:22:29.598Z,2.00
2023-03-28T05:24:57.668Z,2.10
2023-03-28T05:27:27.239Z,2.60
2023-03-28T05:29:55.914Z,2.60
2023-03-28T05:32:25.759Z,2.60
2023-03-28T05:34:55.152Z,2.80
2023-03-28T05:37:23.262Z,3.00
2023-03-28T05:39:56.733Z,3.10
2023-03-28T05:42:26.549Z,2.80
2023-03-28T05:44:54.614Z,2.60
2023-03-28T05:47:22.708Z,2.50
2023-03-28T05:49:52.561Z,2.50
2023-03-28T05:52:22.916Z,3.00
2023-03-28T05:54:51.562Z,3.10
2023-03-28T05:57:21.324Z,2.90
2023-03-28T05:59:51.563Z,2.80
2023-03-28T06:02:21.674Z,2.70
2023-03-28T06:04:50.250Z,3.10
2023-03-28T06:07:23.094Z,3.10
2023-03-28T06:09:58.259Z,3.00
2023-03-28T06:12:26.514Z,3.30
2023-03-28T06:14:57.426Z,3.10
2023-03-28T06:17:26.171Z,3.10
2023-03-28T06:19:54.706Z,3.10
2023-03-28T06:22:22.814Z,3.20
2023-03-28T06:24:50.911Z,3.20
2023-03-28T06:27:19.455Z,3.20
2023-03-28T06:29:47.619Z,3.30
2023-03-28T06:32:18.626Z,3.30
2023-03-28T06:34:46.878Z,3.30
2023-03-28T06:37:15.056Z,4.10
2023-03-28T06:39:43.197Z,4.30
2023-03-28T06:42:11.533Z,4.00
2023-03-28T06:44:39.607Z,3.80
2023-03-28T06:47:07.705Z,3.90
2023-03-28T06:49:37.552Z,4.00
2023-03-28T06:52:06.219Z,4.10
2023-03-28T06:54:34.608Z,3.90
2023-03-28T06:57:03.143Z,3.70
2023-03-28T06:59:31.355Z,3.80
2023-03-28T07:01:59.533Z,3.80
2023-03-28T07:04:27.651Z,3.80
2023-03-28T07:06:57.484Z,3.80
2023-03-28T07:09:25.595Z,3.80
2023-03-28T07:11:53.774Z,3.90
2023-03-28T07:14:21.900Z,3.90
2023-03-28T07:16:50.079Z,4.00
2023-03-28T07:19:18.234Z,4.10
2023-03-28T07:21:46.334Z,4.10
2023-03-28T07:24:16.495Z,4.10
2023-03-28T07:26:44.580Z,4.10
2023-03-28T07:29:13.100Z,4.10
2023-03-28T07:31:41.421Z,4.20
2023-03-28T07:34:09.681Z,4.30
2023-03-28T07:36:38.422Z,4.30
2023-03-28T07:39:07.078Z,4.20
2023-03-28T07:41:36.563Z,4.30
2023-03-28T07:44:05.009Z,4.40
2023-03-28T07:46:33.324Z,4.90
2023-03-28T07:49:01.560Z,4.90
2023-03-28T07:51:30.113Z,5.20
2023-03-28T07:53:58.332Z,5.20
2023-03-28T07:56:26.927Z,5.20
2023-03-28T07:58:56.393Z,5.10
2023-03-28T08:01:25.312Z,4.90
2023-03-28T08:03:53.495Z,4.80
2023-03-28T08:06:31.795Z,5.10
2023-03-28T08:09:00.965Z,5.70
2023-03-28T08:11:29.196Z,5.90
2023-03-28T08:13:59.171Z,5.90
2023-03-28T08:16:27.827Z,6.10
2023-03-28T08:19:09.436Z,6.40
2023-03-28T08:21:39.302Z,6.70
2023-03-28T08:24:12.057Z,7.00
2023-03-28T08:26:44.058Z,7.10
2023-03-28T08:29:14.448Z,7.30
2023-03-28T08:31:42.686Z,6.90
2023-03-28T08:34:11.212Z,7.20
2023-03-28T08:36:39.308Z,7.50
2023-03-28T08:39:07.833Z,7.20
2023-03-28T08:41:48.521Z,7.00
2023-03-28T08:44:39.905Z,7.70
2023-03-28T08:47:15.715Z,8.20
2023-03-28T08:49:47.134Z,8.60
2023-03-28T08:52:19.703Z,8.40
2023-03-28T08:54:50.840Z,8.70
2023-03-28T08:57:22.434Z,8.80
2023-03-28T08:59:57.230Z,8.80
2023-03-28T09:02:29.737Z,8.90
2023-03-28T09:05:11.986Z,8.80
2023-03-28T09:07:49.203Z,9.00
2023-03-28T09:10:26.601Z,8.90
2023-03-28T09:13:08.220Z,8.60
2023-03-28T09:15:47.209Z,8.80
2023-03-28T09:18:32.684Z,8.80
2023-03-28T09:21:09.423Z,9.40
2023-03-28T09:24:04.189Z,9.80
2023-03-28T09:26:36.264Z,9.90
2023-03-28T09:29:07.032Z,10.20
2023-03-28T09:31:41.685Z,9.80
2023-03-28T09:34:17.969Z,10.00
2023-03-28T09:36:49.624Z,10.50
2023-03-28T09:39:27.716Z,10.80
2023-03-28T09:42:01.093Z,10.90
2023-03-28T09:44:43.661Z,10.90
2023-03-28T09:47:21.096Z,10.70
2023-03-28T09:49:54.373Z,11.40
2023-03-28T09:52:27.644Z,11.50
2023-03-28T09:54:56.005Z,12.10
2023-03-28T09:57:24.785Z,12.00
2023-03-28T09:59:53.208Z,11.50
2023-03-28T10:02:32.920Z,11.00
2023-03-28T10:05:02.877Z,10.60
2023-03-28T10:07:42.675Z,11.00
2023-03-28T10:10:20.735Z,11.10
2023-03-28T10:12:50.487Z,11.30
2023-03-28T10:15:36.832Z,10.70
2023-03-28T10:18:07.575Z,10.80
2023-03-28T10:20:38.961Z,10.10
2023-03-28T10:23:07.628Z,9.80
2023-03-28T10:25:39.058Z,9.70
2023-03-28T10:28:09.082Z,9.60
2023-03-28T10:30:38.868Z,9.70
2023-03-28T10:33:24.684Z,9.80
2023-03-28T10:35:58.870Z,9.80
2023-03-28T10:38:31.525Z,9.70
2023-03-28T10:41:06.991Z,9.80
2023-03-28T10:43:39.805Z,9.40
2023-03-28T10:46:16.163Z,9.50
2023-03-28T10:48:50.590Z,10.00
2023-03-28T10:51:22.884Z,10.60
2023-03-28T10:54:17.306Z,10.90
2023-03-28T10:56:52.675Z,10.60
2023-03-28T10:59:48.999Z,10.30
2023-03-28T11:02:40.129Z,10.00
2023-03-28T11:05:26.074Z,9.90
2023-03-28T11:08:01.963Z,9.90
2023-03-28T11:10:40.546Z,10.10
2023-03-28T11:13:22.497Z,10.30
2023-03-28T11:15:59.505Z,10.80
2023-03-28T11:18:53.015Z,11.00
2023-03-28T11:21:30.689Z,11.50
2023-03-28T11:24:16.139Z,11.80
2023-03-28T11:26:59.575Z,11.70
2023-03-28T11:29:43.839Z,11.30
2023-03-28T11:32:19.512Z,11.30
2023-03-28T11:35:01.121Z,11.00
2023-03-28T11:37:37.612Z,11.10
2023-03-28T11:40:16.108Z,11.20
2023-03-28T11:42:49.495Z,11.10
2023-03-28T11:45:34.682Z,11.10
2023-03-28T11:48:14.169Z,11.10
2023-03-28T11:50:50.743Z,10.90
2023-03-28T11:53:25.771Z,10.90
2023-03-28T11:56:01.438Z,10.60
2023-03-28T11:58:34.546Z,10.80
2023-03-28T12:01:08.354Z,10.80
2023-03-28T12:03:43.637Z,10.80
2023-03-28T12:06:18.798Z,10.60
2023-03-28T12:08:56.979Z,10.80
2023-03-28T12:11:30.898Z,10.60
2023-03-28T12:14:11.545Z,10.60
2023-03-28T12:16:45.416Z,10.80
2023-03-28T12:19:18.398Z,10.50
2023-03-28T12:21:51.398Z,10.70
2023-03-28T12:24:26.854Z,10.50
2023-03-28T12:27:07.953Z,10.40
2023-03-28T12:29:42.887Z,10.30
2023-03-28T12:32:27.863Z,10.40
2023-03-28T12:35:03.151Z,10.60
2023-03-28T12:37:36.085Z,10.60
2023-03-28T12:40:20.783Z,10.10
2023-03-28T12:42:51.960Z,9.90
2023-03-28T12:45:24.528Z,9.90
2023-03-28T12:47:55.612Z,10.00
2023-03-28T12:50:30.717Z,10.00
2023-03-28T12:53:00.633Z,9.90
2023-03-28T12:55:48.560Z,9.70
2023-03-28T12:58:26.378Z,9.60
2023-03-28T13:01:06.319Z,9.80
2023-03-28T13:03:47.674Z,9.60
2023-03-28T13:06:25.770Z,9.90
2023-03-28T13:09:23.957Z,9.90
2023-03-28T13:11:59.684Z,9.90
2023-03-28T13:14:37.904Z,9.50
2023-03-28T13:17:22.066Z,9.50
2023-03-28T13:19:55.773Z,9.60
2023-03-28T13:22:33.496Z,9.90
2023-03-28T13:25:29.784Z,9.80
2023-03-28T13:28:01.912Z,9.50
2023-03-28T13:30:31.768Z,9.60
2023-03-28T13:33:04.173Z,9.70
2023-03-28T13:35:43.842Z,9.60
2023-03-28T13:38:34.274Z,9.70
2023-03-28T13:41:06.594Z,10.10
2023-03-28T13:43:45.827Z,10.20
2023-03-28T13:46:17.519Z,10.20
2023-03-28T13:48:54.435Z,10.10
2023-03-28T13:51:24.778Z,10.30
2023-03-28T13:53:52.979Z,10.20
2023-03-28T13:56:25.071Z,10.50
2023-03-28T13:58:56.424Z,10.60
2023-03-28T14:01:27.257Z,10.90
2023-03-28T14:03:56.652Z,11.00
2023-03-28T14:06:26.283Z,11.00
2023-03-28T14:08:57.635Z,11.40
2023-03-28T14:11:30.474Z,11.40
2023-03-28T14:14:08.867Z,11.40
2023-03-28T14:16:38.586Z,11.20
2023-03-28T14:19:08.625Z,11.20
2023-03-28T14:21:37.292Z,11.30
2023-03-28T14:24:07.776Z,11.50
2023-03-28T14:26:37.994Z,11.20
2023-03-28T14:29:12.001Z,11.10
2023-03-28T14:31:46.378Z,11.00
2023-03-28T14:34:24.417Z,11.00
2023-03-28T14:36:59.664Z,11.20
2023-03-28T14:39:30.118Z,10.80
2023-03-28T14:42:01.021Z,11.10
2023-03-28T14:44:31.939Z,11.40
2023-03-28T14:47:01.446Z,11.20
2023-03-28T14:49:29.926Z,11.20
2023-03-28T14:52:00.072Z,10.80
2023-03-28T14:54:32.895Z,10.90
2023-03-28T14:57:01.972Z,10.80
2023-03-28T14:59:38.378Z,11.00
2023-03-28T15:02:07.542Z,11.00
2023-03-28T15:04:36.834Z,11.00
2023-03-28T15:07:09.006Z,11.10
2023-03-28T15:09:37.203Z,11.50
2023-03-28T15:12:09.189Z,11.40
2023-03-28T15:14:42.675Z,11.50
2023-03-28T15:17:19.008Z,11.30
2023-03-28T15:19:51.273Z,11.30
2023-03-28T15:22:25.670Z,11.20
2023-03-28T15:24:54.260Z,11.30
2023-03-28T15:27:27.319Z,11.20
2023-03-28T15:29:57.099Z,11.40
2023-03-28T15:32:27.722Z,11.40
2023-03-28T15:35:00.740Z,11.30
2023-03-28T15:37:29.716Z,11.30
2023-03-28T15:40:22.595Z,11.30
2023-03-28T15:42:52.356Z,11.40
2023-03-28T15:45:37.647Z,11.40
2023-03-28T15:48:06.782Z,11.10
2023-03-28T15:50:38.601Z,11.00
2023-03-28T15:53:09.461Z,11.10
2023-03-28T15:55:37.640Z,10.90
2023-03-28T15:58:07.484Z,11.10
2023-03-28T16:00:45.757Z,11.30
2023-03-28T16:03:26.240Z,10.60
2023-03-28T16:06:04.602Z,10.80
2023-03-28T16:08:42.360Z,10.90
2023-03-28T16:11:15.687Z,10.70
2023-03-28T16:13:44.520Z,10.70
2023-03-28T16:16:20.812Z,10.60
2023-03-28T16:18:49.356Z,10.70
2023-03-28T16:21:19.313Z,10.80
2023-03-28T16:23:47.819Z,10.70
2023-03-28T16:26:16.732Z,10.60
2023-03-28T16:28:44.851Z,10.20
2023-03-28T16:31:16.493Z,10.40
2023-03-28T16:33:44.907Z,10.50
2023-03-28T16:36:14.054Z,10.40
2023-03-28T16:38:42.162Z,10.40
2023-03-28T16:41:10.464Z,10.40
2023-03-28T16:43:39.290Z,10.30
2023-03-28T16:48:37.963Z,10.30
2023-03-28T16:51:07.070Z,10.30
2023-03-28T16:53:36.215Z,10.10
2023-03-28T16:56:05.762Z,10.20
2023-03-28T16:58:33.864Z,10.10
2023-03-28T17:01:05.881Z,9.90
2023-03-28T17:03:34.224Z,9.80
2023-03-28T17:06:09.182Z,9.70
2023-03-28T17:08:37.603Z,9.60
2023-03-28T17:11:08.847Z,9.40
2023-03-28T17:13:37.646Z,9.50
2023-03-28T17:16:07.804Z,9.50
2023-03-28T17:18:35.991Z,9.40
2023-03-28T17:21:07.923Z,9.40
2023-03-28T17:23:37.562Z,9.40
2023-03-28T17:26:08.390Z,9.30
2023-03-28T17:28:40.031Z,9.20
2023-03-28T17:31:08.914Z,9.20
2023-03-28T17:33:37.411Z,9.10
2023-03-28T17:36:19.609Z,9.00
2023-03-28T17:38:49.953Z,9.00
2023-03-28T17:41:18.146Z,9.00
2023-03-28T17:43:47.021Z,9.00
2023-03-28T17:46:15.199Z,9.00
2023-03-28T17:48:43.984Z,8.90
2023-03-28T17:51:12.895Z,8.70
2023-03-28T17:53:44.646Z,8.70
2023-03-28T17:56:13.397Z,8.70
2023-03-28T17:58:42.711Z,8.80
2023-03-28T18:01:12.060Z,8.80
2023-03-28T18:03:40.407Z,8.70
2023-03-28T18:06:09.612Z,8.70
2023-03-28T18:08:38.118Z,8.50
2023-03-28T18:11:10.205Z,8.20
2023-03-28T18:13:39.672Z,7.90
2023-03-28T18:16:10.823Z,8.00
2023-03-28T18:18:40.118Z,8.00
2023-03-28T18:21:11.419Z,7.90
2023-03-28T18:23:39.913Z,7.60
2023-03-28T18:26:09.794Z,7.40
2023-03-28T18:28:38.191Z,7.30
2023-03-28T18:31:11.481Z,7.30
2023-03-28T18:33:40.437Z,7.40
2023-03-28T18:36:09.949Z,7.20
2023-03-28T18:38:39.575Z,7.20
2023-03-28T18:41:10.315Z,7.10
2023-03-28T18:43:39.479Z,7.20
2023-03-28T18:46:08.655Z,7.30
2023-03-28T18:48:37.045Z,7.30
2023-03-28T18:51:06.556Z,7.20
2023-03-28T18:53:34.838Z,7.20
2023-03-28T18:56:03.440Z,7.20
2023-03-28T18:58:33.456Z,7.20
2023-03-28T19:01:03.436Z,7.20
2023-03-28T19:03:34.746Z,7.20
2023-03-28T19:06:03.873Z,7.20
2023-03-28T19:08:32.572Z,7.20
2023-03-28T19:11:02.203Z,7.20
2023-03-28T19:13:32.572Z,7.20
2023-03-28T19:16:01.418Z,7.20
2023-03-28T19:18:30.050Z,7.20
2023-03-28T19:20:58.925Z,7.20
2023-03-28T19:23:29.178Z,7.10
2023-03-28T19:25:58.024Z,7.00
2023-03-28T19:28:26.273Z,6.90
2023-03-28T19:30:59.778Z,6.90
2023-03-28T19:33:29.256Z,6.80
2023-03-28T19:35:57.503Z,6.80
2023-03-28T19:38:27.587Z,6.70
2023-03-28T19:40:59.203Z,6.70
2023-03-28T19:43:28.075Z,6.50
2023-03-28T19:46:02.908Z,6.50
2023-03-28T19:48:31.491Z,6.50
2023-03-28T19:50:59.595Z,6.50
2023-03-28T19:53:28.343Z,6.60
2023-03-28T19:55:58.759Z,6.50
2023-03-28T19:58:27.675Z,6.40
2023-03-28T20:00:56.980Z,6.40
2023-03-28T20:03:27.256Z,6.50
2023-03-28T20:05:55.348Z,6.40
2023-03-28T20:08:23.786Z,6.50
2023-03-28T20:10:53.657Z,6.60
2023-03-28T20:13:22.075Z,6.60
2023-03-28T20:15:50.256Z,6.60
2023-03-28T20:18:20.717Z,6.60
2023-03-28T20:20:54.603Z,6.50
2023-03-28T20:23:23.957Z,6.20
2023-03-28T20:25:53.379Z,6.20
2023-03-28T20:28:25.272Z,6.30
2023-03-28T20:30:54.435Z,6.40
2023-03-28T20:33:23.099Z,6.40
2023-03-28T20:35:57.541Z,6.40
2023-03-28T20:38:26.163Z,6.40
2023-03-28T20:40:54.292Z,6.40
2023-03-28T20:43:26.830Z,6.20
2023-03-28T20:45:57.030Z,6.10
2023-03-28T20:48:34.443Z,6.00
2023-03-28T20:51:05.743Z,6.10
2023-03-28T20:53:35.093Z,5.90
2023-03-28T20:56:05.218Z,5.80
2023-03-28T20:58:34.104Z,5.80
2023-03-28T21:01:03.974Z,5.70
2023-03-28T21:03:47.129Z,5.80
2023-03-28T21:06:18.023Z,5.80
2023-03-28T21:08:47.590Z,5.90
2023-03-28T21:11:17.537Z,5.70
2023-03-28T21:13:46.194Z,5.70
2023-03-28T21:16:15.925Z,5.50
2023-03-28T21:18:44.926Z,5.50
2023-03-28T21:21:14.661Z,5.60
2023-03-28T21:23:45.876Z,5.60
2023-03-28T21:26:16.290Z,5.60
2023-03-28T21:28:45.439Z,5.80
2023-03-28T21:31:15.457Z,5.80
2023-03-28T21:33:44.404Z,5.80
2023-03-28T21:36:16.198Z,5.60
2023-03-28T21:38:46.580Z,5.60
2023-03-28T21:41:15.959Z,5.60
2023-03-28T21:43:44.132Z,5.50
2023-03-28T21:46:13.609Z,5.50
2023-03-28T21:48:42.149Z,5.40
2023-03-28T21:51:10.864Z,5.50
2023-03-28T21:53:39.687Z,5.50
2023-03-28T21:56:11.902Z,5.60
2023-03-28T21:58:40.776Z,5.60
2023-03-28T22:01:09.084Z,5.70
2023-03-28T22:03:38.806Z,5.60
2023-03-28T22:06:07.878Z,5.30
2023-03-28T22:08:36.385Z,5.30
2023-03-28T22:11:14.541Z,5.30
2023-03-28T22:13:44.896Z,5.20
2023-03-28T22:16:14.539Z,5.30
2023-03-28T22:18:50.101Z,5.30
2023-03-28T22:21:18.635Z,5.10
2023-03-28T22:23:47.785Z,5.20
2023-03-28T22:26:17.951Z,5.20
2023-03-28T22:28:46.190Z,5.10
2023-03-28T22:31:17.164Z,5.00
2023-03-28T22:33:45.386Z,5.10
2023-03-28T22:36:13.862Z,5.00
2023-03-28T22:38:42.286Z,4.90
2023-03-28T22:41:11.130Z,4.90
2023-03-28T22:43:42.921Z,4.90
2023-03-28T22:46:16.251Z,4.90
2023-03-28T22:48:45.062Z,5.10
2023-03-28T22:51:14.261Z,5.20
2023-03-28T22:53:42.523Z,5.20
2023-03-28T22:56:12.379Z,5.30
2023-03-28T22:58:42.262Z,5.20
2023-03-28T23:01:10.862Z,5.10
2023-03-28T23:03:39.396Z,5.10
2023-03-28T23:06:08.544Z,5.00
2023-03-28T23:08:37.446Z,5.10
2023-03-28T23:11:06.089Z,5.10
2023-03-28T23:13:34.594Z,5.30
2023-03-28T23:16:04.107Z,5.30
2023-03-28T23:18:32.772Z,5.30
2023-03-28T23:21:01.041Z,5.30
2023-03-28T23:23:29.858Z,5.30
2023-03-28T23:25:57.939Z,5.20
2023-03-28T23:28:26.351Z,5.20
2023-03-28T23:30:54.544Z,5.30
2023-03-28T23:33:24.048Z,5.30
2023-03-28T23:35:52.142Z,5.30
2023-03-28T23:38:20.628Z,5.40
2023-03-28T23:40:48.840Z,5.40
2023-03-28T23:43:17.079Z,5.40
2023-03-28T23:45:45.271Z,5.40
2023-03-28T23:48:13.422Z,5.40
2023-03-28T23:50:43.119Z,5.30
2023-03-28T23:53:11.641Z,5.40
2023-03-28T23:55:40.603Z,5.40
2023-03-28T23:58:09.131Z,5.40
